sensor_id;sensor_type;location;lat;lon;timestamp;temperature;humidity
66312;HTU21D;53114;51.138;6.008;2023-06-10T00:00:40;21.13;96.75
66312;HTU21D;53114;51.138;6.008;2023-06-10T00:03:10;21.09;96.63
66312;HTU21D;53114;51.138;6.008;2023-06-10T00:05:36;21.07;96.93
66312;HTU21D;53114;51.138;6.008;2023-06-10T00:08:05;21.03;97.03
66312;HTU21D;53114;51.138;6.008;2023-06-10T00:10:37;20.99;97.59
66312;HTU21D;53114;51.138;6.008;2023-06-10T00:13:06;20.91;99.64
66312;HTU21D;53114;51.138;6.008;2023-06-10T00:15:35;20.85;100.77
66312;HTU21D;53114;51.138;6.008;2023-06-10T00:18:02;20.79;101.55
66312;HTU21D;53114;51.138;6.008;2023-06-10T00:20:29;20.76;100.87
66312;HTU21D;53114;51.138;6.008;2023-06-10T00:22:57;20.74;100.75
66312;HTU21D;53114;51.138;6.008;2023-06-10T00:25:25;20.71;100.52
66312;HTU21D;53114;51.138;6.008;2023-06-10T00:27:51;20.66;100.71
66312;HTU21D;53114;51.138;6.008;2023-06-10T00:30:17;20.63;101.30
66312;HTU21D;53114;51.138;6.008;2023-06-10T00:32:43;20.60;101.54
66312;HTU21D;53114;51.138;6.008;2023-06-10T00:35:09;20.57;102.09
66312;HTU21D;53114;51.138;6.008;2023-06-10T00:37:35;20.50;102.92
66312;HTU21D;53114;51.138;6.008;2023-06-10T00:40:05;20.43;104.29
66312;HTU21D;53114;51.138;6.008;2023-06-10T00:42:32;20.39;105.17
66312;HTU21D;53114;51.138;6.008;2023-06-10T00:44:58;20.35;105.60
66312;HTU21D;53114;51.138;6.008;2023-06-10T00:47:25;20.31;106.53
66312;HTU21D;53114;51.138;6.008;2023-06-10T00:49:51;20.26;108.46
66312;HTU21D;53114;51.138;6.008;2023-06-10T00:52:18;20.18;109.37
66312;HTU21D;53114;51.138;6.008;2023-06-10T00:54:46;20.13;110.13
66312;HTU21D;53114;51.138;6.008;2023-06-10T00:57:12;20.11;110.75
66312;HTU21D;53114;51.138;6.008;2023-06-10T00:59:43;20.07;110.78
66312;HTU21D;53114;51.138;6.008;2023-06-10T01:02:12;20.04;110.98
66312;HTU21D;53114;51.138;6.008;2023-06-10T01:04:38;20.04;110.94
66312;HTU21D;53114;51.138;6.008;2023-06-10T01:09:43;20.02;111.29
66312;HTU21D;53114;51.138;6.008;2023-06-10T01:14:54;20.03;111.43
66312;HTU21D;53114;51.138;6.008;2023-06-10T01:17:21;20.03;111.31
66312;HTU21D;53114;51.138;6.008;2023-06-10T01:19:55;20.01;111.26
66312;HTU21D;53114;51.138;6.008;2023-06-10T01:22:26;19.99;111.06
66312;HTU21D;53114;51.138;6.008;2023-06-10T01:24:58;19.99;110.91
66312;HTU21D;53114;51.138;6.008;2023-06-10T01:27:30;19.98;111.31
66312;HTU21D;53114;51.138;6.008;2023-06-10T01:30:15;19.96;110.96
66312;HTU21D;53114;51.138;6.008;2023-06-10T01:32:45;19.90;111.27
66312;HTU21D;53114;51.138;6.008;2023-06-10T01:35:15;19.87;111.49
66312;HTU21D;53114;51.138;6.008;2023-06-10T01:37:46;19.82;111.84
66312;HTU21D;53114;51.138;6.008;2023-06-10T01:40:13;19.81;111.71
66312;HTU21D;53114;51.138;6.008;2023-06-10T01:42:39;19.81;111.83
66312;HTU21D;53114;51.138;6.008;2023-06-10T01:45:06;19.77;112.13
66312;HTU21D;53114;51.138;6.008;2023-06-10T01:47:32;19.76;112.35
66312;HTU21D;53114;51.138;6.008;2023-06-10T01:49:59;19.77;112.55
66312;HTU21D;53114;51.138;6.008;2023-06-10T01:52:25;19.79;112.50
66312;HTU21D;53114;51.138;6.008;2023-06-10T01:54:51;19.81;112.23
66312;HTU21D;53114;51.138;6.008;2023-06-10T01:57:17;19.81;112.13
66312;HTU21D;53114;51.138;6.008;2023-06-10T01:59:43;19.80;112.28
66312;HTU21D;53114;51.138;6.008;2023-06-10T02:02:12;19.76;112.39
66312;HTU21D;53114;51.138;6.008;2023-06-10T02:04:38;19.71;112.43
66312;HTU21D;53114;51.138;6.008;2023-06-10T02:07:04;19.66;113.07
66312;HTU21D;53114;51.138;6.008;2023-06-10T02:09:31;19.61;113.38
66312;HTU21D;53114;51.138;6.008;2023-06-10T02:11:58;19.59;113.79
66312;HTU21D;53114;51.138;6.008;2023-06-10T02:14:24;19.57;113.96
66312;HTU21D;53114;51.138;6.008;2023-06-10T02:16:50;19.56;113.90
66312;HTU21D;53114;51.138;6.008;2023-06-10T02:19:16;19.54;114.03
66312;HTU21D;53114;51.138;6.008;2023-06-10T02:21:43;19.54;114.24
66312;HTU21D;53114;51.138;6.008;2023-06-10T02:24:09;19.56;113.94
66312;HTU21D;53114;51.138;6.008;2023-06-10T02:26:35;19.54;113.93
66312;HTU21D;53114;51.138;6.008;2023-06-10T02:29:01;19.54;113.60
66312;HTU21D;53114;51.138;6.008;2023-06-10T02:31:28;19.52;113.76
66312;HTU21D;53114;51.138;6.008;2023-06-10T02:33:54;19.53;113.35
66312;HTU21D;53114;51.138;6.008;2023-06-10T02:36:21;19.52;113.45
66312;HTU21D;53114;51.138;6.008;2023-06-10T02:38:50;19.50;113.24
66312;HTU21D;53114;51.138;6.008;2023-06-10T02:41:16;19.50;113.51
66312;HTU21D;53114;51.138;6.008;2023-06-10T02:43:43;19.51;112.92
66312;HTU21D;53114;51.138;6.008;2023-06-10T02:46:10;19.44;113.03
66312;HTU21D;53114;51.138;6.008;2023-06-10T02:48:43;19.38;112.93
66312;HTU21D;53114;51.138;6.008;2023-06-10T02:51:17;19.35;113.13
66312;HTU21D;53114;51.138;6.008;2023-06-10T02:53:47;19.31;113.10
66312;HTU21D;53114;51.138;6.008;2023-06-10T02:56:16;19.21;113.52
66312;HTU21D;53114;51.138;6.008;2023-06-10T02:58:42;19.15;114.51
66312;HTU21D;53114;51.138;6.008;2023-06-10T03:01:10;19.08;114.99
66312;HTU21D;53114;51.138;6.008;2023-06-10T03:03:49;19.01;115.56
66312;HTU21D;53114;51.138;6.008;2023-06-10T03:06:16;18.99;115.80
66312;HTU21D;53114;51.138;6.008;2023-06-10T03:08:44;18.94;115.86
66312;HTU21D;53114;51.138;6.008;2023-06-10T03:11:15;18.91;116.06
66312;HTU21D;53114;51.138;6.008;2023-06-10T03:13:41;18.86;116.15
66312;HTU21D;53114;51.138;6.008;2023-06-10T03:16:10;18.85;116.56
66312;HTU21D;53114;51.138;6.008;2023-06-10T03:18:38;18.86;116.44
66312;HTU21D;53114;51.138;6.008;2023-06-10T03:21:05;18.87;116.25
66312;HTU21D;53114;51.138;6.008;2023-06-10T03:23:31;18.86;116.25
66312;HTU21D;53114;51.138;6.008;2023-06-10T03:25:58;18.88;116.38
66312;HTU21D;53114;51.138;6.008;2023-06-10T03:28:24;18.87;116.31
66312;HTU21D;53114;51.138;6.008;2023-06-10T03:30:51;18.86;116.57
66312;HTU21D;53114;51.138;6.008;2023-06-10T03:33:18;18.84;116.67
66312;HTU21D;53114;51.138;6.008;2023-06-10T03:35:44;18.85;116.29
66312;HTU21D;53114;51.138;6.008;2023-06-10T03:38:11;18.85;115.98
66312;HTU21D;53114;51.138;6.008;2023-06-10T03:40:38;18.86;115.80
66312;HTU21D;53114;51.138;6.008;2023-06-10T03:43:05;18.87;115.41
66312;HTU21D;53114;51.138;6.008;2023-06-10T03:45:31;18.84;115.88
66312;HTU21D;53114;51.138;6.008;2023-06-10T03:47:58;18.80;116.24
66312;HTU21D;53114;51.138;6.008;2023-06-10T03:50:29;18.79;116.31
66312;HTU21D;53114;51.138;6.008;2023-06-10T03:52:55;18.77;116.18
66312;HTU21D;53114;51.138;6.008;2023-06-10T03:55:26;18.76;116.28
66312;HTU21D;53114;51.138;6.008;2023-06-10T03:57:53;18.78;116.84
66312;HTU21D;53114;51.138;6.008;2023-06-10T04:00:19;18.78;116.67
66312;HTU21D;53114;51.138;6.008;2023-06-10T04:02:47;18.74;117.34
66312;HTU21D;53114;51.138;6.008;2023-06-10T04:05:35;18.71;118.25
66312;HTU21D;53114;51.138;6.008;2023-06-10T04:08:01;18.71;118.40
66312;HTU21D;53114;51.138;6.008;2023-06-10T04:10:27;18.70;118.34
66312;HTU21D;53114;51.138;6.008;2023-06-10T04:12:54;18.73;117.94
66312;HTU21D;53114;51.138;6.008;2023-06-10T04:15:20;18.77;118.08
66312;HTU21D;53114;51.138;6.008;2023-06-10T04:17:47;18.77;118.13
66312;HTU21D;53114;51.138;6.008;2023-06-10T04:20:16;18.77;118.33
66312;HTU21D;53114;51.138;6.008;2023-06-10T04:22:45;18.80;118.41
66312;HTU21D;53114;51.138;6.008;2023-06-10T04:25:11;18.83;118.54
66312;HTU21D;53114;51.138;6.008;2023-06-10T04:27:38;18.85;118.83
66312;HTU21D;53114;51.138;6.008;2023-06-10T04:30:05;18.85;118.99
66312;HTU21D;53114;51.138;6.008;2023-06-10T04:32:33;18.85;118.99
66312;HTU21D;53114;51.138;6.008;2023-06-10T04:35:00;18.84;118.99
66312;HTU21D;53114;51.138;6.008;2023-06-10T04:37:26;18.82;118.99
66312;HTU21D;53114;51.138;6.008;2023-06-10T04:39:52;18.83;118.99
66312;HTU21D;53114;51.138;6.008;2023-06-10T04:42:18;18.83;118.99
66312;HTU21D;53114;51.138;6.008;2023-06-10T04:44:44;18.82;118.99
66312;HTU21D;53114;51.138;6.008;2023-06-10T04:47:10;18.83;118.99
66312;HTU21D;53114;51.138;6.008;2023-06-10T04:49:36;18.89;118.99
66312;HTU21D;53114;51.138;6.008;2023-06-10T04:52:03;18.95;118.99
66312;HTU21D;53114;51.138;6.008;2023-06-10T04:54:33;19.05;118.99
66312;HTU21D;53114;51.138;6.008;2023-06-10T04:56:59;19.14;118.99
66312;HTU21D;53114;51.138;6.008;2023-06-10T04:59:28;19.22;118.99
66312;HTU21D;53114;51.138;6.008;2023-06-10T05:01:55;19.25;118.99
66312;HTU21D;53114;51.138;6.008;2023-06-10T05:04:21;19.31;118.99
66312;HTU21D;53114;51.138;6.008;2023-06-10T05:06:47;19.38;118.99
66312;HTU21D;53114;51.138;6.008;2023-06-10T05:09:13;19.40;118.99
66312;HTU21D;53114;51.138;6.008;2023-06-10T05:11:39;19.42;118.99
66312;HTU21D;53114;51.138;6.008;2023-06-10T05:14:05;19.41;118.99
66312;HTU21D;53114;51.138;6.008;2023-06-10T05:16:31;19.42;118.99
66312;HTU21D;53114;51.138;6.008;2023-06-10T05:18:57;19.46;118.99
66312;HTU21D;53114;51.138;6.008;2023-06-10T05:21:23;19.52;118.99
66312;HTU21D;53114;51.138;6.008;2023-06-10T05:23:49;19.58;118.99
66312;HTU21D;53114;51.138;6.008;2023-06-10T05:26:15;19.62;118.99
66312;HTU21D;53114;51.138;6.008;2023-06-10T05:28:43;19.67;118.99
66312;HTU21D;53114;51.138;6.008;2023-06-10T05:31:09;19.71;118.99
66312;HTU21D;53114;51.138;6.008;2023-06-10T05:33:35;19.73;118.99
66312;HTU21D;53114;51.138;6.008;2023-06-10T05:36:01;19.76;118.99
66312;HTU21D;53114;51.138;6.008;2023-06-10T05:38:27;19.82;118.99
66312;HTU21D;53114;51.138;6.008;2023-06-10T05:40:53;19.89;118.99
66312;HTU21D;53114;51.138;6.008;2023-06-10T05:43:19;19.91;118.99
66312;HTU21D;53114;51.138;6.008;2023-06-10T05:45:45;19.98;118.99
66312;HTU21D;53114;51.138;6.008;2023-06-10T05:48:11;20.03;118.99
66312;HTU21D;53114;51.138;6.008;2023-06-10T05:50:37;20.13;118.99
66312;HTU21D;53114;51.138;6.008;2023-06-10T05:53:05;20.21;118.99
66312;HTU21D;53114;51.138;6.008;2023-06-10T05:55:33;20.29;118.99
66312;HTU21D;53114;51.138;6.008;2023-06-10T05:58:00;20.39;118.99
66312;HTU21D;53114;51.138;6.008;2023-06-10T06:00:26;20.48;118.99
66312;HTU21D;53114;51.138;6.008;2023-06-10T06:02:53;20.56;118.99
66312;HTU21D;53114;51.138;6.008;2023-06-10T06:05:19;20.64;118.99
66312;HTU21D;53114;51.138;6.008;2023-06-10T06:07:45;20.73;118.99
66312;HTU21D;53114;51.138;6.008;2023-06-10T06:10:11;20.84;118.99
66312;HTU21D;53114;51.138;6.008;2023-06-10T06:12:37;20.92;118.99
66312;HTU21D;53114;51.138;6.008;2023-06-10T06:15:03;21.03;118.99
66312;HTU21D;53114;51.138;6.008;2023-06-10T06:17:30;21.19;118.99
66312;HTU21D;53114;51.138;6.008;2023-06-10T06:19:56;21.34;118.15
66312;HTU21D;53114;51.138;6.008;2023-06-10T06:22:22;21.48;116.55
66312;HTU21D;53114;51.138;6.008;2023-06-10T06:24:48;21.61;116.22
66312;HTU21D;53114;51.138;6.008;2023-06-10T06:27:15;21.78;114.33
66312;HTU21D;53114;51.138;6.008;2023-06-10T06:29:41;21.98;113.07
66312;HTU21D;53114;51.138;6.008;2023-06-10T06:32:07;22.13;111.04
66312;HTU21D;53114;51.138;6.008;2023-06-10T06:34:33;22.28;108.68
66312;HTU21D;53114;51.138;6.008;2023-06-10T06:36:59;22.34;108.88
66312;HTU21D;53114;51.138;6.008;2023-06-10T06:39:27;22.36;108.65
66312;HTU21D;53114;51.138;6.008;2023-06-10T06:41:53;22.38;105.98
66312;HTU21D;53114;51.138;6.008;2023-06-10T06:44:25;22.46;103.92
66312;HTU21D;53114;51.138;6.008;2023-06-10T06:46:52;22.48;103.38
66312;HTU21D;53114;51.138;6.008;2023-06-10T06:49:18;22.50;101.80
66312;HTU21D;53114;51.138;6.008;2023-06-10T06:51:44;22.56;100.74
66312;HTU21D;53114;51.138;6.008;2023-06-10T06:54:10;22.64;98.97
66312;HTU21D;53114;51.138;6.008;2023-06-10T06:56:36;22.73;97.78
66312;HTU21D;53114;51.138;6.008;2023-06-10T06:59:03;22.82;97.28
66312;HTU21D;53114;51.138;6.008;2023-06-10T07:01:30;22.91;96.68
66312;HTU21D;53114;51.138;6.008;2023-06-10T07:03:56;22.98;95.33
66312;HTU21D;53114;51.138;6.008;2023-06-10T07:06:22;23.07;93.21
66312;HTU21D;53114;51.138;6.008;2023-06-10T07:08:49;23.12;91.40
66312;HTU21D;53114;51.138;6.008;2023-06-10T07:11:15;23.22;87.34
66312;HTU21D;53114;51.138;6.008;2023-06-10T07:13:41;23.32;86.50
66312;HTU21D;53114;51.138;6.008;2023-06-10T07:16:07;23.42;83.30
66312;HTU21D;53114;51.138;6.008;2023-06-10T07:18:33;23.53;83.29
66312;HTU21D;53114;51.138;6.008;2023-06-10T07:20:59;23.64;83.21
66312;HTU21D;53114;51.138;6.008;2023-06-10T07:23:24;23.72;81.97
66312;HTU21D;53114;51.138;6.008;2023-06-10T07:25:50;23.83;81.20
66312;HTU21D;53114;51.138;6.008;2023-06-10T07:28:16;23.98;78.07
66312;HTU21D;53114;51.138;6.008;2023-06-10T07:30:42;24.43;72.91
66312;HTU21D;53114;51.138;6.008;2023-06-10T07:33:08;25.38;67.63
66312;HTU21D;53114;51.138;6.008;2023-06-10T07:35:36;25.94;63.29
66312;HTU21D;53114;51.138;6.008;2023-06-10T07:38:02;27.17;57.97
66312;HTU21D;53114;51.138;6.008;2023-06-10T07:40:27;29.36;49.74
66312;HTU21D;53114;51.138;6.008;2023-06-10T07:42:54;31.63;42.98
66312;HTU21D;53114;51.138;6.008;2023-06-10T07:45:20;33.64;37.94
66312;HTU21D;53114;51.138;6.008;2023-06-10T07:47:47;35.05;34.37
66312;HTU21D;53114;51.138;6.008;2023-06-10T07:50:12;36.23;31.76
66312;HTU21D;53114;51.138;6.008;2023-06-10T07:52:38;37.15;29.86
66312;HTU21D;53114;51.138;6.008;2023-06-10T07:55:04;37.92;28.62
66312;HTU21D;53114;51.138;6.008;2023-06-10T07:57:31;38.60;27.36
66312;HTU21D;53114;51.138;6.008;2023-06-10T08:00:00;39.05;26.45
66312;HTU21D;53114;51.138;6.008;2023-06-10T08:02:38;39.63;25.61
66312;HTU21D;53114;51.138;6.008;2023-06-10T08:05:05;40.04;24.78
66312;HTU21D;53114;51.138;6.008;2023-06-10T08:07:31;40.30;24.17
66312;HTU21D;53114;51.138;6.008;2023-06-10T08:09:57;40.58;23.46
66312;HTU21D;53114;51.138;6.008;2023-06-10T08:12:23;41.04;22.66
66312;HTU21D;53114;51.138;6.008;2023-06-10T08:14:49;41.25;21.98
66312;HTU21D;53114;51.138;6.008;2023-06-10T08:17:15;41.22;22.20
66312;HTU21D;53114;51.138;6.008;2023-06-10T08:19:41;41.58;22.08
66312;HTU21D;53114;51.138;6.008;2023-06-10T08:22:07;41.90;21.79
66312;HTU21D;53114;51.138;6.008;2023-06-10T08:24:33;41.85;21.97
66312;HTU21D;53114;51.138;6.008;2023-06-10T08:26:59;42.02;22.24
66312;HTU21D;53114;51.138;6.008;2023-06-10T08:29:25;42.17;22.13
66312;HTU21D;53114;51.138;6.008;2023-06-10T08:31:51;42.30;21.44
66312;HTU21D;53114;51.138;6.008;2023-06-10T08:34:17;42.53;21.05
66312;HTU21D;53114;51.138;6.008;2023-06-10T08:36:43;42.76;20.90
66312;HTU21D;53114;51.138;6.008;2023-06-10T08:39:10;42.85;20.84
66312;HTU21D;53114;51.138;6.008;2023-06-10T08:41:43;42.45;21.16
66312;HTU21D;53114;51.138;6.008;2023-06-10T08:44:28;42.31;21.18
66312;HTU21D;53114;51.138;6.008;2023-06-10T08:47:07;42.43;21.31
66312;HTU21D;53114;51.138;6.008;2023-06-10T08:49:42;42.16;21.71
66312;HTU21D;53114;51.138;6.008;2023-06-10T08:52:18;41.90;21.91
66312;HTU21D;53114;51.138;6.008;2023-06-10T08:55:10;41.51;22.40
66312;HTU21D;53114;51.138;6.008;2023-06-10T08:57:36;41.25;22.53
66312;HTU21D;53114;51.138;6.008;2023-06-10T09:00:03;40.86;22.62
66312;HTU21D;53114;51.138;6.008;2023-06-10T09:02:31;40.44;24.38
66312;HTU21D;53114;51.138;6.008;2023-06-10T09:05:02;40.33;24.66
66312;HTU21D;53114;51.138;6.008;2023-06-10T09:07:30;40.40;23.53
66312;HTU21D;53114;51.138;6.008;2023-06-10T09:09:58;40.29;22.96
66312;HTU21D;53114;51.138;6.008;2023-06-10T09:12:28;39.95;24.30
66312;HTU21D;53114;51.138;6.008;2023-06-10T09:14:55;39.62;24.44
66312;HTU21D;53114;51.138;6.008;2023-06-10T09:17:22;39.51;23.66
66312;HTU21D;53114;51.138;6.008;2023-06-10T09:19:48;39.24;23.85
66312;HTU21D;53114;51.138;6.008;2023-06-10T09:22:15;39.07;24.69
66312;HTU21D;53114;51.138;6.008;2023-06-10T09:24:41;39.35;24.50
66312;HTU21D;53114;51.138;6.008;2023-06-10T09:27:08;39.77;24.04
66312;HTU21D;53114;51.138;6.008;2023-06-10T09:29:52;40.32;22.59
66312;HTU21D;53114;51.138;6.008;2023-06-10T09:32:19;40.81;22.40
66312;HTU21D;53114;51.138;6.008;2023-06-10T09:34:46;41.45;20.55
66312;HTU21D;53114;51.138;6.008;2023-06-10T09:37:12;41.87;20.21
66312;HTU21D;53114;51.138;6.008;2023-06-10T09:39:40;42.14;19.51
66312;HTU21D;53114;51.138;6.008;2023-06-10T09:42:18;42.21;19.40
66312;HTU21D;53114;51.138;6.008;2023-06-10T09:44:52;42.36;19.33
66312;HTU21D;53114;51.138;6.008;2023-06-10T09:47:21;42.44;19.39
66312;HTU21D;53114;51.138;6.008;2023-06-10T09:49:51;42.49;19.79
66312;HTU21D;53114;51.138;6.008;2023-06-10T09:52:25;42.34;20.04
66312;HTU21D;53114;51.138;6.008;2023-06-10T09:54:53;41.93;20.85
66312;HTU21D;53114;51.138;6.008;2023-06-10T09:57:21;41.70;21.50
66312;HTU21D;53114;51.138;6.008;2023-06-10T09:59:47;41.75;21.54
66312;HTU21D;53114;51.138;6.008;2023-06-10T10:02:14;41.52;21.79
66312;HTU21D;53114;51.138;6.008;2023-06-10T10:04:42;41.35;21.30
66312;HTU21D;53114;51.138;6.008;2023-06-10T10:07:08;41.39;20.58
66312;HTU21D;53114;51.138;6.008;2023-06-10T10:09:39;41.02;21.44
66312;HTU21D;53114;51.138;6.008;2023-06-10T10:12:10;40.63;22.59
66312;HTU21D;53114;51.138;6.008;2023-06-10T10:14:38;40.13;23.34
66312;HTU21D;53114;51.138;6.008;2023-06-10T10:17:10;39.33;23.40
66312;HTU21D;53114;51.138;6.008;2023-06-10T10:19:45;38.63;25.36
66312;HTU21D;53114;51.138;6.008;2023-06-10T10:22:25;38.05;26.45
66312;HTU21D;53114;51.138;6.008;2023-06-10T10:24:57;37.60;28.71
66312;HTU21D;53114;51.138;6.008;2023-06-10T10:27:36;37.34;28.00
66312;HTU21D;53114;51.138;6.008;2023-06-10T10:30:02;37.08;29.06
66312;HTU21D;53114;51.138;6.008;2023-06-10T10:32:43;36.88;28.98
66312;HTU21D;53114;51.138;6.008;2023-06-10T10:35:18;36.53;28.56
66312;HTU21D;53114;51.138;6.008;2023-06-10T10:37:47;36.17;29.35
66312;HTU21D;53114;51.138;6.008;2023-06-10T10:40:16;35.69;29.42
66312;HTU21D;53114;51.138;6.008;2023-06-10T10:42:43;35.37;30.79
66312;HTU21D;53114;51.138;6.008;2023-06-10T10:45:10;35.08;29.05
66312;HTU21D;53114;51.138;6.008;2023-06-10T10:47:37;34.69;30.42
66312;HTU21D;53114;51.138;6.008;2023-06-10T10:50:18;34.57;30.99
66312;HTU21D;53114;51.138;6.008;2023-06-10T10:53:04;34.51;31.35
66312;HTU21D;53114;51.138;6.008;2023-06-10T10:55:31;34.42;31.28
66312;HTU21D;53114;51.138;6.008;2023-06-10T10:57:59;34.49;31.93
66312;HTU21D;53114;51.138;6.008;2023-06-10T11:00:36;34.48;30.47
66312;HTU21D;53114;51.138;6.008;2023-06-10T11:05:45;34.19;30.59
66312;HTU21D;53114;51.138;6.008;2023-06-10T11:08:15;34.26;32.04
66312;HTU21D;53114;51.138;6.008;2023-06-10T11:10:51;34.44;31.19
66312;HTU21D;53114;51.138;6.008;2023-06-10T11:13:22;34.48;31.12
66312;HTU21D;53114;51.138;6.008;2023-06-10T11:15:50;34.47;29.83
66312;HTU21D;53114;51.138;6.008;2023-06-10T11:18:26;34.45;29.48
66312;HTU21D;53114;51.138;6.008;2023-06-10T11:21:03;34.37;29.05
66312;HTU21D;53114;51.138;6.008;2023-06-10T11:23:38;34.40;30.72
66312;HTU21D;53114;51.138;6.008;2023-06-10T11:26:11;34.48;30.57
66312;HTU21D;53114;51.138;6.008;2023-06-10T11:28:38;34.60;31.75
66312;HTU21D;53114;51.138;6.008;2023-06-10T11:31:04;34.81;32.40
66312;HTU21D;53114;51.138;6.008;2023-06-10T11:33:31;34.89;31.85
66312;HTU21D;53114;51.138;6.008;2023-06-10T11:35:58;34.84;30.55
66312;HTU21D;53114;51.138;6.008;2023-06-10T11:38:24;34.68;30.47
66312;HTU21D;53114;51.138;6.008;2023-06-10T11:40:51;34.66;32.37
66312;HTU21D;53114;51.138;6.008;2023-06-10T11:43:17;34.81;31.49
66312;HTU21D;53114;51.138;6.008;2023-06-10T11:45:44;34.85;30.98
66312;HTU21D;53114;51.138;6.008;2023-06-10T11:48:10;34.90;30.37
66312;HTU21D;53114;51.138;6.008;2023-06-10T11:50:38;34.80;29.07
66312;HTU21D;53114;51.138;6.008;2023-06-10T11:53:04;34.74;28.80
66312;HTU21D;53114;51.138;6.008;2023-06-10T11:55:49;34.70;29.47
66312;HTU21D;53114;51.138;6.008;2023-06-10T11:58:17;34.66;29.52
66312;HTU21D;53114;51.138;6.008;2023-06-10T12:00:46;34.65;28.68
66312;HTU21D;53114;51.138;6.008;2023-06-10T12:03:12;34.71;30.63
66312;HTU21D;53114;51.138;6.008;2023-06-10T12:05:39;34.84;29.15
66312;HTU21D;53114;51.138;6.008;2023-06-10T12:08:11;34.60;29.08
66312;HTU21D;53114;51.138;6.008;2023-06-10T12:10:41;34.23;29.80
66312;HTU21D;53114;51.138;6.008;2023-06-10T12:13:09;34.04;32.83
66312;HTU21D;53114;51.138;6.008;2023-06-10T12:15:35;34.07;31.91
66312;HTU21D;53114;51.138;6.008;2023-06-10T12:18:02;34.25;29.90
66312;HTU21D;53114;51.138;6.008;2023-06-10T12:20:30;34.40;31.29
66312;HTU21D;53114;51.138;6.008;2023-06-10T12:22:58;34.53;32.85
66312;HTU21D;53114;51.138;6.008;2023-06-10T12:25:26;34.57;30.11
66312;HTU21D;53114;51.138;6.008;2023-06-10T12:27:55;34.57;29.75
66312;HTU21D;53114;51.138;6.008;2023-06-10T12:30:26;34.71;30.29
66312;HTU21D;53114;51.138;6.008;2023-06-10T12:32:52;34.86;28.38
66312;HTU21D;53114;51.138;6.008;2023-06-10T12:35:24;35.03;27.91
66312;HTU21D;53114;51.138;6.008;2023-06-10T12:38:01;35.10;27.99
66312;HTU21D;53114;51.138;6.008;2023-06-10T12:40:32;35.15;27.41
66312;HTU21D;53114;51.138;6.008;2023-06-10T12:42:59;35.19;27.30
66312;HTU21D;53114;51.138;6.008;2023-06-10T12:45:39;35.14;26.36
66312;HTU21D;53114;51.138;6.008;2023-06-10T12:48:06;35.18;26.53
66312;HTU21D;53114;51.138;6.008;2023-06-10T12:50:33;35.37;26.59
66312;HTU21D;53114;51.138;6.008;2023-06-10T12:53:00;35.37;26.27
66312;HTU21D;53114;51.138;6.008;2023-06-10T12:55:26;35.24;26.07
66312;HTU21D;53114;51.138;6.008;2023-06-10T12:57:54;35.03;26.69
66312;HTU21D;53114;51.138;6.008;2023-06-10T13:00:20;34.57;27.73
66312;HTU21D;53114;51.138;6.008;2023-06-10T13:02:49;34.07;28.02
66312;HTU21D;53114;51.138;6.008;2023-06-10T13:05:17;33.58;30.18
66312;HTU21D;53114;51.138;6.008;2023-06-10T13:07:44;33.15;31.12
66312;HTU21D;53114;51.138;6.008;2023-06-10T13:10:10;32.87;31.25
66312;HTU21D;53114;51.138;6.008;2023-06-10T13:12:36;32.62;32.38
66312;HTU21D;53114;51.138;6.008;2023-06-10T13:15:03;32.43;32.60
66312;HTU21D;53114;51.138;6.008;2023-06-10T13:17:29;32.16;31.41
66312;HTU21D;53114;51.138;6.008;2023-06-10T13:19:55;31.94;33.44
66312;HTU21D;53114;51.138;6.008;2023-06-10T13:22:21;31.67;34.88
66312;HTU21D;53114;51.138;6.008;2023-06-10T13:24:49;31.46;36.30
66312;HTU21D;53114;51.138;6.008;2023-06-10T13:27:15;31.27;37.14
66312;HTU21D;53114;51.138;6.008;2023-06-10T13:29:41;31.18;38.35
66312;HTU21D;53114;51.138;6.008;2023-06-10T13:32:07;31.09;38.72
66312;HTU21D;53114;51.138;6.008;2023-06-10T13:34:33;31.09;36.65
66312;HTU21D;53114;51.138;6.008;2023-06-10T13:36:59;31.14;37.79
66312;HTU21D;53114;51.138;6.008;2023-06-10T13:39:25;31.30;37.88
66312;HTU21D;53114;51.138;6.008;2023-06-10T13:41:51;31.60;36.85
66312;HTU21D;53114;51.138;6.008;2023-06-10T13:44:17;31.83;33.77
66312;HTU21D;53114;51.138;6.008;2023-06-10T13:46:43;31.99;32.29
66312;HTU21D;53114;51.138;6.008;2023-06-10T13:49:09;32.13;32.36
66312;HTU21D;53114;51.138;6.008;2023-06-10T13:51:35;32.32;32.24
66312;HTU21D;53114;51.138;6.008;2023-06-10T13:54:01;32.61;31.74
66312;HTU21D;53114;51.138;6.008;2023-06-10T13:56:27;32.90;30.83
66312;HTU21D;53114;51.138;6.008;2023-06-10T13:58:53;33.13;31.80
66312;HTU21D;53114;51.138;6.008;2023-06-10T14:01:18;33.22;32.68
66312;HTU21D;53114;51.138;6.008;2023-06-10T14:03:45;33.28;30.69
66312;HTU21D;53114;51.138;6.008;2023-06-10T14:06:11;33.41;30.78
66312;HTU21D;53114;51.138;6.008;2023-06-10T14:08:41;33.49;29.88
66312;HTU21D;53114;51.138;6.008;2023-06-10T14:11:06;33.66;30.25
66312;HTU21D;53114;51.138;6.008;2023-06-10T14:13:32;33.77;31.03
66312;HTU21D;53114;51.138;6.008;2023-06-10T14:15:59;33.57;30.31
66312;HTU21D;53114;51.138;6.008;2023-06-10T14:18:28;33.38;30.64
66312;HTU21D;53114;51.138;6.008;2023-06-10T14:20:54;33.26;30.92
66312;HTU21D;53114;51.138;6.008;2023-06-10T14:23:20;33.04;31.18
66312;HTU21D;53114;51.138;6.008;2023-06-10T14:25:46;32.86;32.04
66312;HTU21D;53114;51.138;6.008;2023-06-10T14:28:12;32.82;32.24
66312;HTU21D;53114;51.138;6.008;2023-06-10T14:30:38;32.76;32.06
66312;HTU21D;53114;51.138;6.008;2023-06-10T14:33:04;32.61;32.54
66312;HTU21D;53114;51.138;6.008;2023-06-10T14:35:31;32.33;33.31
66312;HTU21D;53114;51.138;6.008;2023-06-10T14:37:57;32.12;33.95
66312;HTU21D;53114;51.138;6.008;2023-06-10T14:40:23;32.03;33.81
66312;HTU21D;53114;51.138;6.008;2023-06-10T14:42:50;31.93;34.51
66312;HTU21D;53114;51.138;6.008;2023-06-10T14:45:16;31.81;35.85
66312;HTU21D;53114;51.138;6.008;2023-06-10T14:47:42;31.73;36.37
66312;HTU21D;53114;51.138;6.008;2023-06-10T14:50:08;31.69;36.62
66312;HTU21D;53114;51.138;6.008;2023-06-10T14:52:34;31.61;36.67
66312;HTU21D;53114;51.138;6.008;2023-06-10T14:55:00;31.59;35.40
66312;HTU21D;53114;51.138;6.008;2023-06-10T14:57:25;31.55;36.55
66312;HTU21D;53114;51.138;6.008;2023-06-10T14:59:51;31.53;36.47
66312;HTU21D;53114;51.138;6.008;2023-06-10T15:02:17;31.54;37.72
66312;HTU21D;53114;51.138;6.008;2023-06-10T15:04:43;31.52;37.98
66312;HTU21D;53114;51.138;6.008;2023-06-10T15:07:09;31.44;36.75
66312;HTU21D;53114;51.138;6.008;2023-06-10T15:09:35;31.42;36.82
66312;HTU21D;53114;51.138;6.008;2023-06-10T15:12:01;31.45;36.84
66312;HTU21D;53114;51.138;6.008;2023-06-10T15:14:27;31.39;36.47
66312;HTU21D;53114;51.138;6.008;2023-06-10T15:16:53;31.31;37.48
66312;HTU21D;53114;51.138;6.008;2023-06-10T15:19:19;31.20;40.13
66312;HTU21D;53114;51.138;6.008;2023-06-10T15:21:45;31.02;39.85